createdAt,value
2022-12-27T00:16:40.280Z,3.31
2022-12-27T00:46:40.232Z,3.06
2022-12-27T01:16:40.300Z,2.75
2022-12-27T01:46:40.264Z,2.38
2022-12-27T02:16:40.371Z,2.06
2022-12-27T02:46:40.321Z,1.81
2022-12-27T03:16:40.271Z,1.69
2022-12-27T03:46:40.309Z,1.19
2022-12-27T04:16:40.277Z,0.81
2022-12-27T04:46:40.330Z,1
2022-12-27T05:16:40.273Z,0.63
2022-12-27T05:46:40.304Z,0.25
2022-12-27T06:16:40.346Z,0.19
2022-12-27T06:46:40.303Z,0.13
2022-12-27T07:16:40.393Z,0.19
2022-12-27T07:46:40.302Z,0.63
2022-12-27T08:16:40.340Z,1.5
2022-12-27T08:46:40.351Z,2.19
2022-12-27T09:16:40.317Z,3
2022-12-27T09:46:40.373Z,4.19
2022-12-27T10:16:40.312Z,4.63
2022-12-27T10:46:40.376Z,4.81
2022-12-27T11:16:40.448Z,5.06
2022-12-27T11:46:40.452Z,5.5
2022-12-27T12:16:40.359Z,5.63
2022-12-27T12:46:40.347Z,6.06
2022-12-27T13:16:40.403Z,5.75
2022-12-27T13:46:42.717Z,5.44
2022-12-27T14:16:40.352Z,5.25
2022-12-27T14:46:40.454Z,5.56
2022-12-27T15:16:40.342Z,5.5
2022-12-27T15:46:40.358Z,4.94
2022-12-27T16:16:40.399Z,4.38
2022-12-27T16:46:40.372Z,3.88
2022-12-27T17:16:40.389Z,3.44
2022-12-27T17:46:40.365Z,3
2022-12-27T18:16:40.494Z,2.5
2022-12-27T18:46:40.398Z,2.06
2022-12-27T19:16:40.397Z,1.56
2022-12-27T19:46:40.396Z,1.13
2022-12-27T20:16:40.491Z,1.06
2022-12-27T20:46:40.407Z,0.19
2022-12-27T21:16:40.472Z,0.25
2022-12-27T21:46:40.469Z,0.19
2022-12-27T22:16:40.430Z,-0.25
2022-12-27T23:16:40.442Z,0.06
2022-12-27T23:46:40.487Z,-0.25
